Terminal Aerodrome Forecast
Issued by NWS Mobile, AL

Home | Current Version | Previous Version | Text Only | Print | Product List | Glossary On
Versions: 1 2 3 4 5 6 7 8 9 10 11 12
000
FTUS44 KMOB 271136
TAFPNS
TAF
KPNS 271136Z 2712/2812 01004KT P6SM SKC
     FM271500 12009KT P6SM VCTS SCT030CB SCT250
     FM280000 VRB03KT P6SM SKC=

USA.gov is the U.S. government's official web portal to all federal, state and local government web resources and services.